createdAt,value
2022-10-23T00:01:30.054Z,3.13
2022-10-23T00:04:00.375Z,3.72
2022-10-23T00:06:28.341Z,3.40
2022-10-23T00:08:54.986Z,3.83
2022-10-23T00:11:24.599Z,3.42
2022-10-23T00:13:53.201Z,3.40
2022-10-23T00:16:19.715Z,4.20
2022-10-23T00:18:46.195Z,3.33
2022-10-23T00:21:15.344Z,4.22
2022-10-23T00:23:41.704Z,3.60
2022-10-23T00:26:11.089Z,3.80
2022-10-23T00:28:38.120Z,3.90
2022-10-23T00:31:05.601Z,3.80
2022-10-23T00:33:32.688Z,3.53
2022-10-23T00:35:59.036Z,4.68
2022-10-23T00:38:25.586Z,3.38
2022-10-23T00:40:52.053Z,3.88
2022-10-23T00:43:24.275Z,3.38
2022-10-23T00:45:51.126Z,3.50
2022-10-23T00:48:17.969Z,4.07
2022-10-23T00:50:46.139Z,3.60
2022-10-23T00:53:13.370Z,3.72
2022-10-23T00:55:46.574Z,3.70
2022-10-23T00:58:14.532Z,3.58
2022-10-23T01:00:47.448Z,4.30
2022-10-23T01:03:16.745Z,3.80
2022-10-23T01:06:10.323Z,3.85
2022-10-23T01:09:00.489Z,3.60
2022-10-23T01:11:37.725Z,3.47
2022-10-23T01:14:09.881Z,3.63
2022-10-23T01:16:49.165Z,3.53
2022-10-23T01:19:44.555Z,3.75
2022-10-23T01:22:32.050Z,3.22
2022-10-23T01:25:03.069Z,3.40
2022-10-23T01:27:37.580Z,3.05
2022-10-23T01:30:11.823Z,3.63
2022-10-23T01:32:44.919Z,3.55
2022-10-23T01:35:16.272Z,3.47
2022-10-23T01:40:20.593Z,2.58
2022-10-23T01:42:53.089Z,3.13
2022-10-23T01:45:27.851Z,3.30
2022-10-23T01:47:56.483Z,3.15
2022-10-23T01:50:24.863Z,2.83
2022-10-23T01:52:51.278Z,3.00
2022-10-23T01:55:17.831Z,3.22
2022-10-23T01:57:45.896Z,2.80
2022-10-23T02:00:15.670Z,2.72
2022-10-23T02:02:44.926Z,2.72
2022-10-23T02:05:17.170Z,3.15
2022-10-23T02:07:44.993Z,2.83
2022-10-23T02:10:13.865Z,2.85
2022-10-23T02:12:50.458Z,3.53
2022-10-23T02:15:28.343Z,3.30
2022-10-23T02:18:13.264Z,3.20
2022-10-23T02:20:53.523Z,3.40
2022-10-23T02:23:31.258Z,3.30
2022-10-23T02:26:15.477Z,3.42
2022-10-23T02:28:48.600Z,3.80
2022-10-23T02:31:18.535Z,3.65
2022-10-23T02:33:46.965Z,4.07
2022-10-23T02:36:14.314Z,3.45
2022-10-23T02:38:42.991Z,3.25
2022-10-23T02:41:24.499Z,3.47
2022-10-23T02:43:59.935Z,3.53
2022-10-23T02:47:07.775Z,4.38
2022-10-23T02:49:44.393Z,3.65
2022-10-23T02:52:35.951Z,3.50
2022-10-23T02:55:39.756Z,4.07
2022-10-23T02:58:17.607Z,3.42
2022-10-23T03:00:50.707Z,3.58
2022-10-23T03:03:25.888Z,3.40
2022-10-23T03:05:52.473Z,3.15
2022-10-23T03:08:18.808Z,3.83
2022-10-23T03:10:45.182Z,3.25
2022-10-23T03:13:11.604Z,3.50
2022-10-23T03:15:37.982Z,2.83
2022-10-23T03:18:04.395Z,2.85
2022-10-23T03:20:30.884Z,3.83
2022-10-23T03:22:57.254Z,3.10
2022-10-23T03:25:23.562Z,2.95
2022-10-23T03:27:49.964Z,2.90
2022-10-23T03:30:16.395Z,2.85
2022-10-23T03:32:42.969Z,3.55
2022-10-23T03:35:09.466Z,4.22
2022-10-23T03:37:35.786Z,3.95
2022-10-23T03:40:02.334Z,2.85
2022-10-23T03:42:28.690Z,3.80
2022-10-23T03:44:55.018Z,2.80
2022-10-23T03:47:21.486Z,3.70
2022-10-23T03:49:47.808Z,3.83
2022-10-23T03:52:14.602Z,3.45
2022-10-23T03:54:40.963Z,3.30
2022-10-23T03:57:07.336Z,3.10
2022-10-23T03:59:33.770Z,4.07
2022-10-23T04:02:00.287Z,3.50
2022-10-23T04:04:26.777Z,3.65
2022-10-23T04:06:53.140Z,2.72
2022-10-23T04:09:19.857Z,3.33
2022-10-23T04:11:46.173Z,3.65
2022-10-23T04:14:13.727Z,3.15
2022-10-23T04:16:40.082Z,3.53
2022-10-23T04:19:06.715Z,3.28
2022-10-23T04:21:33.132Z,2.78
2022-10-23T04:23:59.537Z,3.22
2022-10-23T04:26:25.914Z,3.38
2022-10-23T04:28:52.211Z,3.30
2022-10-23T04:31:18.543Z,3.05
2022-10-23T04:33:44.918Z,3.00
2022-10-23T04:36:11.275Z,3.50
2022-10-23T04:38:37.615Z,3.10
2022-10-23T04:41:04.015Z,3.33
2022-10-23T04:43:30.380Z,3.00
2022-10-23T04:45:56.727Z,3.65
2022-10-23T04:48:25.589Z,3.75
2022-10-23T04:50:59.217Z,3.38
2022-10-23T04:53:26.870Z,3.15
2022-10-23T04:55:55.035Z,3.38
2022-10-23T04:58:22.517Z,3.28
2022-10-23T05:00:48.986Z,3.47
2022-10-23T05:03:16.530Z,4.28
2022-10-23T05:05:43.538Z,3.70
2022-10-23T05:08:14.241Z,3.33
2022-10-23T05:10:43.589Z,3.13
2022-10-23T05:13:10.051Z,3.83
2022-10-23T05:15:36.477Z,3.55
2022-10-23T05:18:11.732Z,3.08
2022-10-23T05:20:42.015Z,2.85
2022-10-23T05:23:11.357Z,3.45
2022-10-23T05:25:37.718Z,2.92
2022-10-23T05:28:04.329Z,2.97
2022-10-23T05:30:32.937Z,2.65
2022-10-23T05:33:01.361Z,3.28
2022-10-23T05:35:29.744Z,3.78
2022-10-23T05:37:58.781Z,3.50
2022-10-23T05:40:26.254Z,3.25
2022-10-23T05:42:52.682Z,3.25
2022-10-23T05:45:19.030Z,2.72
2022-10-23T05:47:45.871Z,3.63
2022-10-23T05:50:12.466Z,3.83
2022-10-23T05:52:38.855Z,3.38
2022-10-23T05:55:05.635Z,2.95
2022-10-23T05:57:33.877Z,3.20
2022-10-23T06:00:00.450Z,3.00
2022-10-23T06:02:26.955Z,3.38
2022-10-23T06:04:53.427Z,2.92
2022-10-23T06:07:25.343Z,3.67
2022-10-23T06:09:52.941Z,2.80
2022-10-23T06:12:22.773Z,3.88
2022-10-23T06:14:49.449Z,3.85
2022-10-23T06:17:16.036Z,3.30
2022-10-23T06:19:44.059Z,3.70
2022-10-23T06:22:10.399Z,3.55
2022-10-23T06:24:36.762Z,3.50
2022-10-23T06:27:03.222Z,3.65
2022-10-23T06:29:29.602Z,3.60
2022-10-23T06:31:55.948Z,3.28
2022-10-23T06:34:22.306Z,3.80
2022-10-23T06:36:48.674Z,2.72
2022-10-23T06:39:15.198Z,2.28
2022-10-23T06:41:42.234Z,3.85
2022-10-23T06:44:10.169Z,3.20
2022-10-23T06:46:36.639Z,3.15
2022-10-23T06:49:03.408Z,3.50
2022-10-23T06:51:29.766Z,3.10
2022-10-23T06:53:56.903Z,3.33
2022-10-23T06:56:25.158Z,3.25
2022-10-23T06:58:51.659Z,3.03
2022-10-23T07:01:18.340Z,3.13
2022-10-23T07:03:45.042Z,3.25
2022-10-23T07:06:11.753Z,2.85
2022-10-23T07:08:38.452Z,2.80
2022-10-23T07:11:07.582Z,2.58
2022-10-23T07:13:35.349Z,2.95
2022-10-23T07:16:20.026Z,2.10
2022-10-23T07:18:47.165Z,2.40
2022-10-23T07:21:13.501Z,2.53
2022-10-23T07:23:39.856Z,2.70
2022-10-23T07:26:15.123Z,3.10
2022-10-23T07:28:42.507Z,3.45
2022-10-23T07:31:09.397Z,2.45
2022-10-23T07:33:36.003Z,2.85
2022-10-23T07:36:05.216Z,2.30
2022-10-23T07:38:31.531Z,2.13
2022-10-23T07:40:59.167Z,2.60
2022-10-23T07:43:26.446Z,2.55
2022-10-23T07:45:53.704Z,2.75
2022-10-23T07:48:21.658Z,2.58
2022-10-23T07:50:48.000Z,2.85
2022-10-23T07:53:17.909Z,2.67
2022-10-23T07:55:53.093Z,2.55
2022-10-23T07:58:19.569Z,2.70
2022-10-23T08:00:51.949Z,2.97
2022-10-23T08:03:19.131Z,3.42
2022-10-23T08:05:45.570Z,3.28
2022-10-23T08:08:11.944Z,2.97
2022-10-23T08:10:38.350Z,2.50
2022-10-23T08:13:04.810Z,2.75
2022-10-23T08:15:31.564Z,2.70
2022-10-23T17:48:25.775Z,1.80
2022-10-23T17:51:13.614Z,1.73
2022-10-23T17:53:42.263Z,1.85
2022-10-23T17:56:12.021Z,1.88
2022-10-23T17:58:38.528Z,2.15
2022-10-23T18:01:14.183Z,1.88
2022-10-23T18:03:41.415Z,1.60
2022-10-23T18:06:19.893Z,1.80
2022-10-23T18:08:47.130Z,2.00
2022-10-23T18:11:22.714Z,1.00
2022-10-23T18:13:52.703Z,2.00
2022-10-23T18:16:19.855Z,2.28
2022-10-23T18:18:51.762Z,2.00
2022-10-23T18:21:23.007Z,1.70
2022-10-23T18:23:50.170Z,1.73
2022-10-23T18:26:23.846Z,2.03
2022-10-23T18:28:52.225Z,2.28
2022-10-23T18:31:20.682Z,1.75
2022-10-23T18:33:47.387Z,2.42
2022-10-23T18:36:16.852Z,1.70
2022-10-23T18:38:44.384Z,1.80
2022-10-23T18:41:10.799Z,1.65
2022-10-23T18:43:44.858Z,1.80
2022-10-23T18:46:15.037Z,1.85
2022-10-23T18:48:42.253Z,1.92
2022-10-23T18:51:17.345Z,1.70
2022-10-23T18:53:46.558Z,2.72
2022-10-23T18:56:14.727Z,2.38
2022-10-23T18:58:41.207Z,1.88
2022-10-23T19:01:07.700Z,2.20
2022-10-23T19:03:34.202Z,1.58
2022-10-23T19:06:00.522Z,1.90
2022-10-23T19:08:26.907Z,2.60
2022-10-23T19:10:53.627Z,2.03
2022-10-23T19:13:21.134Z,2.33
2022-10-23T19:15:47.538Z,1.80
2022-10-23T19:18:13.923Z,1.90
2022-10-23T19:20:41.560Z,1.90
2022-10-23T19:23:08.827Z,2.10
2022-10-23T19:25:36.869Z,2.05
2022-10-23T19:28:04.441Z,1.70
2022-10-23T19:30:31.573Z,1.50
2022-10-23T19:32:57.916Z,1.48
2022-10-23T19:35:24.300Z,1.63
2022-10-23T19:37:50.640Z,1.55
2022-10-23T19:40:17.110Z,1.90
2022-10-23T19:42:44.182Z,1.50
2022-10-23T19:45:13.395Z,1.27
2022-10-23T19:47:41.065Z,1.48
2022-10-23T19:50:09.059Z,1.33
2022-10-23T19:52:35.808Z,1.50
2022-10-23T19:55:03.231Z,1.60
2022-10-23T19:57:33.544Z,1.17
2022-10-23T20:00:00.659Z,1.40
2022-10-23T20:02:27.839Z,1.45
2022-10-23T20:04:54.315Z,2.33
2022-10-23T20:07:20.640Z,1.17
2022-10-23T20:09:47.024Z,1.10
2022-10-23T20:12:13.349Z,0.90
2022-10-23T20:14:39.704Z,1.35
2022-10-23T20:17:06.450Z,1.08
2022-10-23T20:19:32.867Z,1.20
2022-10-23T20:21:59.198Z,1.10
2022-10-23T20:24:25.506Z,1.73
2022-10-23T20:26:54.722Z,1.13
2022-10-23T20:29:21.924Z,0.90
2022-10-23T20:31:48.694Z,0.73
2022-10-23T20:34:15.057Z,1.13
2022-10-23T20:36:46.619Z,1.00
2022-10-23T20:39:25.368Z,1.10
2022-10-23T20:41:52.514Z,1.10
2022-10-23T20:44:19.121Z,0.82
2022-10-23T20:46:45.717Z,1.15
2022-10-23T20:49:13.200Z,1.00
2022-10-23T20:51:40.116Z,1.58
2022-10-23T20:54:06.459Z,0.95
2022-10-23T20:56:35.813Z,0.70
2022-10-23T20:59:06.460Z,0.57
2022-10-23T21:01:34.011Z,0.80
2022-10-23T21:04:01.941Z,0.70
2022-10-23T21:06:41.024Z,0.60
2022-10-23T21:09:17.252Z,0.50
2022-10-23T21:11:43.588Z,0.88
2022-10-23T21:14:09.902Z,0.60
2022-10-23T21:16:40.665Z,0.55
2022-10-23T21:19:08.593Z,1.30
2022-10-23T21:21:35.664Z,0.70
2022-10-23T21:24:06.755Z,0.40
2022-10-23T21:29:17.531Z,0.60
2022-10-23T21:31:44.642Z,0.70
2022-10-23T21:37:10.879Z,0.70
2022-10-23T21:39:32.322Z,0.73
2022-10-23T21:41:58.657Z,0.73
2022-10-23T21:44:24.983Z,1.02
2022-10-23T21:46:51.326Z,0.80
2022-10-23T21:49:17.662Z,1.17
2022-10-23T21:51:44.222Z,0.85
2022-10-23T21:54:13.173Z,0.95
2022-10-23T21:56:46.875Z,0.80
2022-10-23T21:59:16.836Z,0.85
2022-10-23T22:01:46.237Z,1.15
2022-10-23T22:04:14.407Z,1.40
2022-10-23T22:06:42.019Z,1.55
2022-10-23T22:09:11.307Z,1.50
2022-10-23T22:11:37.936Z,1.60
2022-10-23T22:14:04.544Z,1.90
2022-10-23T22:16:31.399Z,2.28
2022-10-23T22:18:57.741Z,2.17
2022-10-23T22:21:27.619Z,1.80
2022-10-23T22:23:57.018Z,2.05
2022-10-23T22:26:38.840Z,2.00
2022-10-23T22:29:11.748Z,2.05
2022-10-23T22:31:39.254Z,1.88
2022-10-23T22:34:18.682Z,1.85
2022-10-23T22:36:54.517Z,2.40
2022-10-23T22:39:21.194Z,2.10
2022-10-23T22:41:47.693Z,1.75
2022-10-23T22:44:17.367Z,1.98
2022-10-23T22:46:44.639Z,2.58
2022-10-23T22:49:10.979Z,2.15
2022-10-23T22:51:38.990Z,2.55
2022-10-23T22:54:05.475Z,1.77
2022-10-23T22:56:31.921Z,1.60
2022-10-23T22:58:58.609Z,1.63
2022-10-23T23:01:34.707Z,1.83
2022-10-23T23:04:08.933Z,1.58
2022-10-23T23:06:47.790Z,1.80
2022-10-23T23:09:17.859Z,1.55
2022-10-23T23:11:51.274Z,1.35
2022-10-23T23:14:22.056Z,1.55
2022-10-23T23:16:50.386Z,1.80
2022-10-23T23:19:16.726Z,1.85
2022-10-23T23:21:43.056Z,1.60
2022-10-23T23:24:11.294Z,1.67
2022-10-23T23:26:37.625Z,1.55
2022-10-23T23:29:03.965Z,1.45
2022-10-23T23:31:30.303Z,1.40
2022-10-23T23:33:56.665Z,1.50
2022-10-23T23:36:26.018Z,1.67
2022-10-23T23:38:53.725Z,1.60
2022-10-23T23:41:21.914Z,1.25
2022-10-23T23:43:48.598Z,1.50
2022-10-23T23:46:15.228Z,1.48
2022-10-23T23:48:46.927Z,1.35
2022-10-23T23:51:15.691Z,1.38
2022-10-23T23:53:42.009Z,2.00
2022-10-23T23:56:08.576Z,1.13
2022-10-23T23:58:35.066Z,1.40
